sensor_id;sensor_type;location;lat;lon;timestamp;P1;durP1;ratioP1;P2;durP2;ratioP2
53401;SDS011;39295;45.534;20.034;2023-04-06T00:02:16;25.90;;;17.40;;
53401;SDS011;39295;45.534;20.034;2023-04-06T00:04:42;34.35;;;22.05;;
53401;SDS011;39295;45.534;20.034;2023-04-06T00:07:26;33.10;;;22.10;;
53401;SDS011;39295;45.534;20.034;2023-04-06T00:09:54;31.02;;;19.02;;
53401;SDS011;39295;45.534;20.034;2023-04-06T00:12:20;69.45;;;28.88;;
53401;SDS011;39295;45.534;20.034;2023-04-06T00:14:46;44.08;;;21.55;;
53401;SDS011;39295;45.534;20.034;2023-04-06T00:17:12;58.70;;;25.70;;
53401;SDS011;39295;45.534;20.034;2023-04-06T00:19:38;44.88;;;21.90;;
53401;SDS011;39295;45.534;20.034;2023-04-06T00:22:04;43.65;;;21.85;;
53401;SDS011;39295;45.534;20.034;2023-04-06T00:24:30;49.38;;;22.63;;
53401;SDS011;39295;45.534;20.034;2023-04-06T00:26:56;40.00;;;20.25;;
53401;SDS011;39295;45.534;20.034;2023-04-06T00:29:22;35.88;;;20.90;;
53401;SDS011;39295;45.534;20.034;2023-04-06T00:31:48;28.52;;;17.83;;
53401;SDS011;39295;45.534;20.034;2023-04-06T00:34:15;34.47;;;21.70;;
53401;SDS011;39295;45.534;20.034;2023-04-06T00:39:44;34.65;;;22.35;;
53401;SDS011;39295;45.534;20.034;2023-04-06T00:42:11;32.42;;;21.40;;
53401;SDS011;39295;45.534;20.034;2023-04-06T00:44:38;37.85;;;22.33;;
53401;SDS011;39295;45.534;20.034;2023-04-06T00:47:04;32.45;;;22.35;;
53401;SDS011;39295;45.534;20.034;2023-04-06T00:49:31;33.58;;;21.80;;
53401;SDS011;39295;45.534;20.034;2023-04-06T01:01:08;36.90;;;22.38;;
53401;SDS011;39295;45.534;20.034;2023-04-06T01:03:34;34.05;;;22.17;;
53401;SDS011;39295;45.534;20.034;2023-04-06T01:06:00;37.95;;;21.30;;
53401;SDS011;39295;45.534;20.034;2023-04-06T01:08:27;31.92;;;20.63;;
53401;SDS011;39295;45.534;20.034;2023-04-06T01:10:53;31.20;;;20.00;;
53401;SDS011;39295;45.534;20.034;2023-04-06T01:13:19;33.05;;;23.08;;
53401;SDS011;39295;45.534;20.034;2023-04-06T01:15:46;32.17;;;21.80;;
53401;SDS011;39295;45.534;20.034;2023-04-06T01:18:12;31.73;;;19.42;;
53401;SDS011;39295;45.534;20.034;2023-04-06T01:20:38;34.15;;;19.75;;
53401;SDS011;39295;45.534;20.034;2023-04-06T01:23:04;29.17;;;19.42;;
53401;SDS011;39295;45.534;20.034;2023-04-06T01:25:30;30.00;;;19.02;;
53401;SDS011;39295;45.534;20.034;2023-04-06T01:27:56;28.73;;;18.90;;
53401;SDS011;39295;45.534;20.034;2023-04-06T01:30:22;28.17;;;17.85;;
53401;SDS011;39295;45.534;20.034;2023-04-06T01:32:48;30.08;;;19.45;;
53401;SDS011;39295;45.534;20.034;2023-04-06T01:35:15;32.35;;;19.83;;
53401;SDS011;39295;45.534;20.034;2023-04-06T01:37:41;32.10;;;18.58;;
53401;SDS011;39295;45.534;20.034;2023-04-06T01:40:07;29.40;;;19.15;;
53401;SDS011;39295;45.534;20.034;2023-04-06T01:42:33;26.48;;;17.92;;
53401;SDS011;39295;45.534;20.034;2023-04-06T01:44:59;28.98;;;18.65;;
53401;SDS011;39295;45.534;20.034;2023-04-06T01:47:25;30.15;;;18.63;;
53401;SDS011;39295;45.534;20.034;2023-04-06T01:49:51;29.08;;;19.25;;
53401;SDS011;39295;45.534;20.034;2023-04-06T01:55:21;30.35;;;18.48;;
53401;SDS011;39295;45.534;20.034;2023-04-06T01:57:47;30.30;;;20.25;;
53401;SDS011;39295;45.534;20.034;2023-04-06T02:00:13;33.95;;;22.08;;
53401;SDS011;39295;45.534;20.034;2023-04-06T02:02:40;31.52;;;20.40;;
53401;SDS011;39295;45.534;20.034;2023-04-06T02:05:07;27.73;;;19.95;;
53401;SDS011;39295;45.534;20.034;2023-04-06T02:07:33;29.13;;;21.52;;
53401;SDS011;39295;45.534;20.034;2023-04-06T02:09:59;28.45;;;20.13;;
53401;SDS011;39295;45.534;20.034;2023-04-06T02:12:25;32.53;;;19.55;;
53401;SDS011;39295;45.534;20.034;2023-04-06T02:14:51;32.97;;;20.52;;
53401;SDS011;39295;45.534;20.034;2023-04-06T02:17:17;27.65;;;18.92;;
53401;SDS011;39295;45.534;20.034;2023-04-06T02:19:43;26.08;;;18.15;;
53401;SDS011;39295;45.534;20.034;2023-04-06T02:25:13;27.63;;;19.35;;
53401;SDS011;39295;45.534;20.034;2023-04-06T02:27:39;28.23;;;18.38;;
53401;SDS011;39295;45.534;20.034;2023-04-06T02:30:05;31.98;;;20.58;;
53401;SDS011;39295;45.534;20.034;2023-04-06T02:32:31;26.23;;;18.13;;
53401;SDS011;39295;45.534;20.034;2023-04-06T02:34:57;25.75;;;18.13;;
53401;SDS011;39295;45.534;20.034;2023-04-06T02:37:24;32.95;;;17.98;;
53401;SDS011;39295;45.534;20.034;2023-04-06T02:39:50;24.60;;;17.42;;
53401;SDS011;39295;45.534;20.034;2023-04-06T02:42:16;31.05;;;16.92;;
53401;SDS011;39295;45.534;20.034;2023-04-06T02:44:42;27.48;;;17.65;;
53401;SDS011;39295;45.534;20.034;2023-04-06T02:47:08;26.60;;;17.00;;
53401;SDS011;39295;45.534;20.034;2023-04-06T02:49:35;24.48;;;17.17;;
53401;SDS011;39295;45.534;20.034;2023-04-06T02:58:08;29.55;;;17.48;;
53401;SDS011;39295;45.534;20.034;2023-04-06T03:00:34;30.88;;;17.25;;
53401;SDS011;39295;45.534;20.034;2023-04-06T03:03:01;24.50;;;16.27;;
53401;SDS011;39295;45.534;20.034;2023-04-06T03:05:27;27.63;;;16.00;;
53401;SDS011;39295;45.534;20.034;2023-04-06T03:13:58;25.80;;;15.32;;
53401;SDS011;39295;45.534;20.034;2023-04-06T03:16:24;21.98;;;14.27;;
53401;SDS011;39295;45.534;20.034;2023-04-06T03:18:50;26.70;;;15.88;;
53401;SDS011;39295;45.534;20.034;2023-04-06T03:21:16;25.30;;;15.55;;
53401;SDS011;39295;45.534;20.034;2023-04-06T03:23:44;21.25;;;14.73;;
53401;SDS011;39295;45.534;20.034;2023-04-06T03:26:10;25.40;;;15.20;;
53401;SDS011;39295;45.534;20.034;2023-04-06T03:28:36;27.75;;;14.52;;
53401;SDS011;39295;45.534;20.034;2023-04-06T03:31:02;24.40;;;14.35;;
53401;SDS011;39295;45.534;20.034;2023-04-06T03:33:29;21.73;;;13.65;;
53401;SDS011;39295;45.534;20.034;2023-04-06T03:35:55;20.35;;;13.90;;
53401;SDS011;39295;45.534;20.034;2023-04-06T03:38:21;20.20;;;13.40;;
53401;SDS011;39295;45.534;20.034;2023-04-06T03:40:47;24.67;;;14.07;;
53401;SDS011;39295;45.534;20.034;2023-04-06T03:43:13;22.30;;;13.82;;
53401;SDS011;39295;45.534;20.034;2023-04-06T03:45:39;26.20;;;13.48;;
53401;SDS011;39295;45.534;20.034;2023-04-06T03:48:05;25.35;;;14.05;;
53401;SDS011;39295;45.534;20.034;2023-04-06T03:50:31;29.63;;;14.23;;
53401;SDS011;39295;45.534;20.034;2023-04-06T03:52:57;23.35;;;13.68;;
53401;SDS011;39295;45.534;20.034;2023-04-06T03:55:23;27.30;;;13.68;;
53401;SDS011;39295;45.534;20.034;2023-04-06T03:57:49;26.80;;;15.50;;
53401;SDS011;39295;45.534;20.034;2023-04-06T04:00:15;28.40;;;15.13;;
53401;SDS011;39295;45.534;20.034;2023-04-06T04:02:41;32.38;;;21.42;;
53401;SDS011;39295;45.534;20.034;2023-04-06T04:05:08;43.75;;;30.83;;
53401;SDS011;39295;45.534;20.034;2023-04-06T04:07:34;42.03;;;29.63;;
53401;SDS011;39295;45.534;20.034;2023-04-06T04:10:00;45.45;;;31.13;;
53401;SDS011;39295;45.534;20.034;2023-04-06T04:12:26;49.17;;;33.05;;
53401;SDS011;39295;45.534;20.034;2023-04-06T04:14:52;41.58;;;28.75;;
53401;SDS011;39295;45.534;20.034;2023-04-06T04:17:18;32.28;;;22.08;;
53401;SDS011;39295;45.534;20.034;2023-04-06T04:19:44;27.73;;;16.38;;
53401;SDS011;39295;45.534;20.034;2023-04-06T04:22:10;27.02;;;15.38;;
53401;SDS011;39295;45.534;20.034;2023-04-06T04:24:36;24.13;;;15.20;;
53401;SDS011;39295;45.534;20.034;2023-04-06T04:27:02;27.60;;;16.60;;
53401;SDS011;39295;45.534;20.034;2023-04-06T04:29:29;26.95;;;16.70;;
53401;SDS011;39295;45.534;20.034;2023-04-06T04:31:55;27.13;;;16.13;;
53401;SDS011;39295;45.534;20.034;2023-04-06T04:34:22;29.63;;;16.15;;
53401;SDS011;39295;45.534;20.034;2023-04-06T04:36:51;28.50;;;15.27;;
53401;SDS011;39295;45.534;20.034;2023-04-06T04:39:17;26.63;;;14.15;;
53401;SDS011;39295;45.534;20.034;2023-04-06T04:41:43;23.30;;;13.95;;
53401;SDS011;39295;45.534;20.034;2023-04-06T04:44:09;28.02;;;15.05;;
53401;SDS011;39295;45.534;20.034;2023-04-06T04:46:35;27.30;;;14.43;;
53401;SDS011;39295;45.534;20.034;2023-04-06T04:49:01;28.55;;;15.70;;
53401;SDS011;39295;45.534;20.034;2023-04-06T04:51:27;26.60;;;15.32;;
53401;SDS011;39295;45.534;20.034;2023-04-06T04:53:53;24.00;;;15.30;;
53401;SDS011;39295;45.534;20.034;2023-04-06T04:56:20;24.35;;;14.48;;
53401;SDS011;39295;45.534;20.034;2023-04-06T04:58:46;24.02;;;13.88;;
53401;SDS011;39295;45.534;20.034;2023-04-06T05:01:12;22.55;;;12.77;;
53401;SDS011;39295;45.534;20.034;2023-04-06T05:03:39;22.05;;;14.07;;
53401;SDS011;39295;45.534;20.034;2023-04-06T05:06:06;27.85;;;15.23;;
53401;SDS011;39295;45.534;20.034;2023-04-06T05:08:33;30.20;;;16.42;;
53401;SDS011;39295;45.534;20.034;2023-04-06T05:10:59;28.88;;;15.95;;
53401;SDS011;39295;45.534;20.034;2023-04-06T05:13:25;29.35;;;15.88;;
53401;SDS011;39295;45.534;20.034;2023-04-06T05:15:51;25.73;;;16.52;;
53401;SDS011;39295;45.534;20.034;2023-04-06T05:18:17;26.33;;;15.60;;
53401;SDS011;39295;45.534;20.034;2023-04-06T05:20:43;25.15;;;14.60;;
53401;SDS011;39295;45.534;20.034;2023-04-06T05:23:09;33.10;;;18.40;;
53401;SDS011;39295;45.534;20.034;2023-04-06T05:25:35;35.58;;;19.80;;
53401;SDS011;39295;45.534;20.034;2023-04-06T05:28:01;42.80;;;19.27;;
53401;SDS011;39295;45.534;20.034;2023-04-06T05:30:27;34.90;;;16.77;;
53401;SDS011;39295;45.534;20.034;2023-04-06T05:32:53;44.92;;;17.10;;
53401;SDS011;39295;45.534;20.034;2023-04-06T05:35:20;36.83;;;14.95;;
53401;SDS011;39295;45.534;20.034;2023-04-06T05:40:36;40.28;;;16.38;;
53401;SDS011;39295;45.534;20.034;2023-04-06T05:43:03;30.20;;;13.75;;
53401;SDS011;39295;45.534;20.034;2023-04-06T05:45:29;32.85;;;13.95;;
53401;SDS011;39295;45.534;20.034;2023-04-06T05:47:55;22.90;;;11.57;;
53401;SDS011;39295;45.534;20.034;2023-04-06T05:50:22;23.75;;;12.63;;
53401;SDS011;39295;45.534;20.034;2023-04-06T05:52:48;21.10;;;10.77;;
53401;SDS011;39295;45.534;20.034;2023-04-06T05:55:14;22.55;;;10.98;;
53401;SDS011;39295;45.534;20.034;2023-04-06T05:57:40;20.27;;;10.50;;
53401;SDS011;39295;45.534;20.034;2023-04-06T06:00:06;30.75;;;13.15;;
53401;SDS011;39295;45.534;20.034;2023-04-06T06:02:35;22.30;;;11.15;;
53401;SDS011;39295;45.534;20.034;2023-04-06T06:05:01;26.80;;;12.48;;
53401;SDS011;39295;45.534;20.034;2023-04-06T06:07:27;22.00;;;11.65;;
53401;SDS011;39295;45.534;20.034;2023-04-06T06:09:56;20.13;;;10.77;;
53401;SDS011;39295;45.534;20.034;2023-04-06T06:12:22;23.50;;;11.88;;
53401;SDS011;39295;45.534;20.034;2023-04-06T06:14:48;21.80;;;11.38;;
53401;SDS011;39295;45.534;20.034;2023-04-06T06:17:14;21.85;;;10.80;;
53401;SDS011;39295;45.534;20.034;2023-04-06T06:19:40;22.70;;;11.40;;
53401;SDS011;39295;45.534;20.034;2023-04-06T06:22:06;21.67;;;11.63;;
53401;SDS011;39295;45.534;20.034;2023-04-06T06:24:32;22.75;;;11.45;;
53401;SDS011;39295;45.534;20.034;2023-04-06T06:26:58;23.55;;;10.90;;
53401;SDS011;39295;45.534;20.034;2023-04-06T06:29:25;21.45;;;10.55;;
53401;SDS011;39295;45.534;20.034;2023-04-06T06:31:51;20.63;;;10.77;;
53401;SDS011;39295;45.534;20.034;2023-04-06T06:34:17;22.52;;;10.48;;
53401;SDS011;39295;45.534;20.034;2023-04-06T06:36:43;24.80;;;11.60;;
53401;SDS011;39295;45.534;20.034;2023-04-06T06:39:09;20.83;;;11.73;;
53401;SDS011;39295;45.534;20.034;2023-04-06T06:41:35;20.13;;;11.20;;
53401;SDS011;39295;45.534;20.034;2023-04-06T06:44:01;22.30;;;10.48;;
53401;SDS011;39295;45.534;20.034;2023-04-06T06:46:28;21.73;;;10.82;;
53401;SDS011;39295;45.534;20.034;2023-04-06T06:48:54;20.10;;;10.30;;
53401;SDS011;39295;45.534;20.034;2023-04-06T06:51:20;21.58;;;10.55;;
53401;SDS011;39295;45.534;20.034;2023-04-06T06:53:47;21.15;;;11.20;;
53401;SDS011;39295;45.534;20.034;2023-04-06T06:56:13;21.80;;;10.55;;
53401;SDS011;39295;45.534;20.034;2023-04-06T06:58:39;17.85;;;9.55;;
53401;SDS011;39295;45.534;20.034;2023-04-06T07:01:05;15.07;;;9.07;;
53401;SDS011;39295;45.534;20.034;2023-04-06T07:03:32;21.60;;;11.85;;
53401;SDS011;39295;45.534;20.034;2023-04-06T07:05:58;21.92;;;9.05;;
53401;SDS011;39295;45.534;20.034;2023-04-06T07:08:24;18.27;;;9.63;;
53401;SDS011;39295;45.534;20.034;2023-04-06T07:10:50;15.48;;;8.18;;
53401;SDS011;39295;45.534;20.034;2023-04-06T07:15:49;10.93;;;7.10;;
53401;SDS011;39295;45.534;20.034;2023-04-06T07:18:15;13.02;;;7.65;;
53401;SDS011;39295;45.534;20.034;2023-04-06T07:20:41;11.23;;;7.22;;
53401;SDS011;39295;45.534;20.034;2023-04-06T07:23:08;15.20;;;9.25;;
53401;SDS011;39295;45.534;20.034;2023-04-06T07:25:34;14.25;;;7.50;;
53401;SDS011;39295;45.534;20.034;2023-04-06T07:28:00;12.05;;;8.27;;
53401;SDS011;39295;45.534;20.034;2023-04-06T07:30:26;10.38;;;7.22;;
53401;SDS011;39295;45.534;20.034;2023-04-06T07:32:53;11.50;;;7.15;;
53401;SDS011;39295;45.534;20.034;2023-04-06T07:35:20;13.43;;;7.15;;
53401;SDS011;39295;45.534;20.034;2023-04-06T07:37:46;11.55;;;7.82;;
53401;SDS011;39295;45.534;20.034;2023-04-06T07:40:12;15.30;;;7.47;;
53401;SDS011;39295;45.534;20.034;2023-04-06T07:42:39;18.95;;;7.88;;
53401;SDS011;39295;45.534;20.034;2023-04-06T07:45:05;11.52;;;7.57;;
53401;SDS011;39295;45.534;20.034;2023-04-06T07:47:31;12.80;;;8.07;;
53401;SDS011;39295;45.534;20.034;2023-04-06T07:49:57;18.48;;;9.23;;
53401;SDS011;39295;45.534;20.034;2023-04-06T07:52:24;15.25;;;8.60;;
53401;SDS011;39295;45.534;20.034;2023-04-06T07:54:50;17.67;;;9.30;;
53401;SDS011;39295;45.534;20.034;2023-04-06T07:57:16;16.17;;;9.35;;
53401;SDS011;39295;45.534;20.034;2023-04-06T07:59:42;14.65;;;9.60;;
53401;SDS011;39295;45.534;20.034;2023-04-06T08:02:08;19.17;;;9.57;;
53401;SDS011;39295;45.534;20.034;2023-04-06T08:04:34;14.93;;;8.73;;
53401;SDS011;39295;45.534;20.034;2023-04-06T08:07:01;15.70;;;9.05;;
53401;SDS011;39295;45.534;20.034;2023-04-06T08:09:27;17.42;;;9.60;;
53401;SDS011;39295;45.534;20.034;2023-04-06T08:11:53;20.45;;;9.52;;
53401;SDS011;39295;45.534;20.034;2023-04-06T08:14:19;15.63;;;9.32;;
53401;SDS011;39295;45.534;20.034;2023-04-06T08:16:45;13.68;;;8.82;;
53401;SDS011;39295;45.534;20.034;2023-04-06T08:19:11;17.45;;;9.35;;
53401;SDS011;39295;45.534;20.034;2023-04-06T08:21:38;18.02;;;9.23;;
53401;SDS011;39295;45.534;20.034;2023-04-06T08:24:07;16.70;;;9.50;;
53401;SDS011;39295;45.534;20.034;2023-04-06T08:26:33;16.92;;;9.05;;
53401;SDS011;39295;45.534;20.034;2023-04-06T08:28:59;16.23;;;9.32;;
53401;SDS011;39295;45.534;20.034;2023-04-06T08:31:25;18.63;;;10.23;;
53401;SDS011;39295;45.534;20.034;2023-04-06T08:33:52;15.35;;;9.75;;
53401;SDS011;39295;45.534;20.034;2023-04-06T08:36:18;18.90;;;9.15;;
53401;SDS011;39295;45.534;20.034;2023-04-06T08:38:47;14.85;;;9.35;;
53401;SDS011;39295;45.534;20.034;2023-04-06T08:41:14;15.77;;;9.60;;
53401;SDS011;39295;45.534;20.034;2023-04-06T08:43:43;18.88;;;10.35;;
53401;SDS011;39295;45.534;20.034;2023-04-06T08:46:10;15.95;;;9.55;;
53401;SDS011;39295;45.534;20.034;2023-04-06T08:48:38;17.60;;;10.18;;
53401;SDS011;39295;45.534;20.034;2023-04-06T08:51:05;17.10;;;10.38;;
53401;SDS011;39295;45.534;20.034;2023-04-06T08:53:31;22.92;;;10.73;;
53401;SDS011;39295;45.534;20.034;2023-04-06T08:55:57;15.85;;;10.05;;
53401;SDS011;39295;45.534;20.034;2023-04-06T08:58:24;15.82;;;9.85;;
53401;SDS011;39295;45.534;20.034;2023-04-06T09:00:51;20.55;;;10.45;;
53401;SDS011;39295;45.534;20.034;2023-04-06T09:03:17;18.35;;;10.55;;
53401;SDS011;39295;45.534;20.034;2023-04-06T09:05:44;18.38;;;10.45;;
53401;SDS011;39295;45.534;20.034;2023-04-06T09:08:11;18.35;;;10.60;;
53401;SDS011;39295;45.534;20.034;2023-04-06T09:10:40;19.95;;;11.27;;
53401;SDS011;39295;45.534;20.034;2023-04-06T09:13:06;18.00;;;8.82;;
53401;SDS011;39295;45.534;20.034;2023-04-06T09:15:33;17.52;;;8.18;;
53401;SDS011;39295;45.534;20.034;2023-04-06T09:17:59;13.30;;;7.45;;
53401;SDS011;39295;45.534;20.034;2023-04-06T09:20:25;12.48;;;7.78;;
53401;SDS011;39295;45.534;20.034;2023-04-06T09:22:53;16.15;;;9.05;;
53401;SDS011;39295;45.534;20.034;2023-04-06T09:25:20;14.73;;;9.05;;
53401;SDS011;39295;45.534;20.034;2023-04-06T09:27:46;13.68;;;8.23;;
53401;SDS011;39295;45.534;20.034;2023-04-06T09:30:13;18.40;;;9.40;;
53401;SDS011;39295;45.534;20.034;2023-04-06T09:32:44;15.40;;;8.20;;
53401;SDS011;39295;45.534;20.034;2023-04-06T09:35:12;13.13;;;8.00;;
53401;SDS011;39295;45.534;20.034;2023-04-06T09:37:38;12.15;;;7.82;;
53401;SDS011;39295;45.534;20.034;2023-04-06T09:40:04;11.77;;;7.93;;
53401;SDS011;39295;45.534;20.034;2023-04-06T09:42:32;17.38;;;8.30;;
53401;SDS011;39295;45.534;20.034;2023-04-06T09:44:58;11.00;;;7.00;;
53401;SDS011;39295;45.534;20.034;2023-04-06T09:47:24;12.32;;;7.25;;
53401;SDS011;39295;45.534;20.034;2023-04-06T09:49:52;12.13;;;7.80;;
53401;SDS011;39295;45.534;20.034;2023-04-06T09:52:21;12.82;;;7.60;;
53401;SDS011;39295;45.534;20.034;2023-04-06T09:57:55;10.88;;;7.43;;
53401;SDS011;39295;45.534;20.034;2023-04-06T10:00:23;15.52;;;7.80;;
53401;SDS011;39295;45.534;20.034;2023-04-06T10:07:56;11.63;;;7.05;;
53401;SDS011;39295;45.534;20.034;2023-04-06T10:10:23;11.48;;;7.45;;
53401;SDS011;39295;45.534;20.034;2023-04-06T10:12:49;17.38;;;8.57;;
53401;SDS011;39295;45.534;20.034;2023-04-06T10:15:16;14.45;;;7.90;;
53401;SDS011;39295;45.534;20.034;2023-04-06T10:17:42;15.25;;;8.73;;
53401;SDS011;39295;45.534;20.034;2023-04-06T10:20:09;15.52;;;8.45;;
53401;SDS011;39295;45.534;20.034;2023-04-06T10:22:39;17.38;;;9.68;;
53401;SDS011;39295;45.534;20.034;2023-04-06T10:25:26;14.52;;;8.85;;
53401;SDS011;39295;45.534;20.034;2023-04-06T10:27:58;13.95;;;9.55;;
53401;SDS011;39295;45.534;20.034;2023-04-06T10:30:24;15.00;;;8.32;;
53401;SDS011;39295;45.534;20.034;2023-04-06T10:32:51;14.05;;;8.70;;
53401;SDS011;39295;45.534;20.034;2023-04-06T10:35:17;16.42;;;9.20;;
53401;SDS011;39295;45.534;20.034;2023-04-06T10:37:53;17.35;;;10.07;;
53401;SDS011;39295;45.534;20.034;2023-04-06T10:43:22;16.52;;;9.52;;
53401;SDS011;39295;45.534;20.034;2023-04-06T10:45:55;16.33;;;9.55;;
53401;SDS011;39295;45.534;20.034;2023-04-06T10:48:22;20.27;;;10.55;;
53401;SDS011;39295;45.534;20.034;2023-04-06T10:50:49;15.98;;;10.80;;
53401;SDS011;39295;45.534;20.034;2023-04-06T10:53:22;18.65;;;10.52;;
53401;SDS011;39295;45.534;20.034;2023-04-06T10:58:52;17.38;;;11.30;;
53401;SDS011;39295;45.534;20.034;2023-04-06T11:01:21;18.02;;;11.20;;
53401;SDS011;39295;45.534;20.034;2023-04-06T11:03:53;17.52;;;10.63;;
53401;SDS011;39295;45.534;20.034;2023-04-06T11:06:24;17.38;;;10.63;;
53401;SDS011;39295;45.534;20.034;2023-04-06T11:08:51;19.23;;;11.13;;
53401;SDS011;39295;45.534;20.034;2023-04-06T11:11:18;19.00;;;9.95;;
53401;SDS011;39295;45.534;20.034;2023-04-06T11:13:51;15.35;;;9.55;;
53401;SDS011;39295;45.534;20.034;2023-04-06T11:16:18;22.30;;;13.38;;
53401;SDS011;39295;45.534;20.034;2023-04-06T11:30:05;23.00;;;13.68;;
53401;SDS011;39295;45.534;20.034;2023-04-06T11:32:39;23.23;;;13.90;;
53401;SDS011;39295;45.534;20.034;2023-04-06T11:35:06;26.55;;;15.68;;
53401;SDS011;39295;45.534;20.034;2023-04-06T11:37:32;19.55;;;11.50;;
53401;SDS011;39295;45.534;20.034;2023-04-06T11:39:59;20.67;;;12.07;;
53401;SDS011;39295;45.534;20.034;2023-04-06T11:42:25;21.05;;;12.52;;
53401;SDS011;39295;45.534;20.034;2023-04-06T11:44:55;20.75;;;13.23;;
53401;SDS011;39295;45.534;20.034;2023-04-06T11:47:28;18.67;;;11.43;;
53401;SDS011;39295;45.534;20.034;2023-04-06T11:49:55;19.63;;;11.40;;
53401;SDS011;39295;45.534;20.034;2023-04-06T11:52:24;15.77;;;9.68;;
53401;SDS011;39295;45.534;20.034;2023-04-06T11:54:51;17.73;;;10.30;;
53401;SDS011;39295;45.534;20.034;2023-04-06T11:57:18;18.60;;;12.18;;
53401;SDS011;39295;45.534;20.034;2023-04-06T11:59:45;17.52;;;10.73;;
53401;SDS011;39295;45.534;20.034;2023-04-06T12:02:11;15.60;;;10.18;;
53401;SDS011;39295;45.534;20.034;2023-04-06T12:04:37;12.35;;;8.77;;
53401;SDS011;39295;45.534;20.034;2023-04-06T12:07:04;18.92;;;10.07;;
53401;SDS011;39295;45.534;20.034;2023-04-06T12:09:30;15.52;;;10.50;;
53401;SDS011;39295;45.534;20.034;2023-04-06T12:11:56;18.13;;;10.82;;
53401;SDS011;39295;45.534;20.034;2023-04-06T12:14:22;18.45;;;12.15;;
53401;SDS011;39295;45.534;20.034;2023-04-06T12:16:49;24.95;;;13.63;;
53401;SDS011;39295;45.534;20.034;2023-04-06T12:19:15;19.70;;;11.32;;
53401;SDS011;39295;45.534;20.034;2023-04-06T12:21:41;21.48;;;12.10;;
53401;SDS011;39295;45.534;20.034;2023-04-06T12:24:07;21.48;;;13.43;;
53401;SDS011;39295;45.534;20.034;2023-04-06T12:26:33;31.33;;;13.70;;
53401;SDS011;39295;45.534;20.034;2023-04-06T12:29:00;17.92;;;12.32;;
53401;SDS011;39295;45.534;20.034;2023-04-06T12:31:34;21.00;;;13.27;;
53401;SDS011;39295;45.534;20.034;2023-04-06T12:34:00;17.48;;;11.25;;
53401;SDS011;39295;45.534;20.034;2023-04-06T12:36:28;16.48;;;10.75;;
53401;SDS011;39295;45.534;20.034;2023-04-06T12:38:54;18.02;;;11.40;;
53401;SDS011;39295;45.534;20.034;2023-04-06T12:41:38;17.05;;;9.77;;
53401;SDS011;39295;45.534;20.034;2023-04-06T12:44:06;15.40;;;9.65;;
53401;SDS011;39295;45.534;20.034;2023-04-06T12:46:32;14.90;;;9.63;;
53401;SDS011;39295;45.534;20.034;2023-04-06T12:48:58;16.00;;;10.25;;
53401;SDS011;39295;45.534;20.034;2023-04-06T12:51:26;24.50;;;14.10;;
53401;SDS011;39295;45.534;20.034;2023-04-06T12:53:53;20.15;;;12.05;;
53401;SDS011;39295;45.534;20.034;2023-04-06T12:56:19;21.25;;;12.35;;
53401;SDS011;39295;45.534;20.034;2023-04-06T12:58:50;23.55;;;12.57;;
53401;SDS011;39295;45.534;20.034;2023-04-06T13:01:16;20.60;;;11.95;;
53401;SDS011;39295;45.534;20.034;2023-04-06T13:03:42;14.02;;;9.07;;
53401;SDS011;39295;45.534;20.034;2023-04-06T13:06:09;22.02;;;13.07;;
53401;SDS011;39295;45.534;20.034;2023-04-06T13:08:35;20.25;;;13.05;;
53401;SDS011;39295;45.534;20.034;2023-04-06T13:11:05;18.52;;;10.68;;
53401;SDS011;39295;45.534;20.034;2023-04-06T13:13:34;23.92;;;14.02;;
53401;SDS011;39295;45.534;20.034;2023-04-06T13:16:01;19.13;;;11.63;;
53401;SDS011;39295;45.534;20.034;2023-04-06T13:18:28;22.40;;;11.07;;
53401;SDS011;39295;45.534;20.034;2023-04-06T13:20:55;20.95;;;11.95;;
53401;SDS011;39295;45.534;20.034;2023-04-06T13:23:21;17.15;;;10.10;;
53401;SDS011;39295;45.534;20.034;2023-04-06T13:26:06;18.88;;;9.77;;
53401;SDS011;39295;45.534;20.034;2023-04-06T13:28:33;15.48;;;8.77;;
53401;SDS011;39295;45.534;20.034;2023-04-06T13:31:01;14.20;;;8.75;;
53401;SDS011;39295;45.534;20.034;2023-04-06T13:33:28;11.85;;;8.55;;
53401;SDS011;39295;45.534;20.034;2023-04-06T13:35:55;15.48;;;8.73;;
53401;SDS011;39295;45.534;20.034;2023-04-06T13:38:21;15.32;;;8.63;;
53401;SDS011;39295;45.534;20.034;2023-04-06T13:40:49;11.93;;;7.70;;
53401;SDS011;39295;45.534;20.034;2023-04-06T13:43:15;16.23;;;8.38;;
53401;SDS011;39295;45.534;20.034;2023-04-06T13:45:48;13.48;;;8.35;;
53401;SDS011;39295;45.534;20.034;2023-04-06T13:48:15;16.17;;;9.25;;
53401;SDS011;39295;45.534;20.034;2023-04-06T13:50:41;11.98;;;8.00;;
53401;SDS011;39295;45.534;20.034;2023-04-06T13:53:07;17.15;;;11.38;;
53401;SDS011;39295;45.534;20.034;2023-04-06T13:55:33;12.48;;;8.32;;
53401;SDS011;39295;45.534;20.034;2023-04-06T13:57:59;15.35;;;8.65;;
53401;SDS011;39295;45.534;20.034;2023-04-06T14:00:25;15.85;;;9.27;;
53401;SDS011;39295;45.534;20.034;2023-04-06T14:02:52;13.98;;;8.70;;
53401;SDS011;39295;45.534;20.034;2023-04-06T14:05:19;14.80;;;8.63;;
53401;SDS011;39295;45.534;20.034;2023-04-06T14:07:45;11.55;;;7.85;;
53401;SDS011;39295;45.534;20.034;2023-04-06T14:10:11;15.18;;;8.20;;
53401;SDS011;39295;45.534;20.034;2023-04-06T14:12:45;15.52;;;8.60;;
53401;SDS011;39295;45.534;20.034;2023-04-06T14:17:37;28.10;;;12.65;;
53401;SDS011;39295;45.534;20.034;2023-04-06T14:20:04;15.05;;;9.68;;
53401;SDS011;39295;45.534;20.034;2023-04-06T14:22:31;22.67;;;11.52;;
53401;SDS011;39295;45.534;20.034;2023-04-06T14:27:43;28.02;;;16.02;;
53401;SDS011;39295;45.534;20.034;2023-04-06T14:30:09;43.35;;;15.40;;
53401;SDS011;39295;45.534;20.034;2023-04-06T14:32:36;78.63;;;25.83;;
53401;SDS011;39295;45.534;20.034;2023-04-06T14:35:02;72.15;;;23.02;;
53401;SDS011;39295;45.534;20.034;2023-04-06T14:37:29;32.75;;;14.65;;
53401;SDS011;39295;45.534;20.034;2023-04-06T14:39:55;75.13;;;20.25;;
53401;SDS011;39295;45.534;20.034;2023-04-06T14:42:21;25.08;;;10.88;;
53401;SDS011;39295;45.534;20.034;2023-04-06T14:44:47;26.50;;;11.95;;
53401;SDS011;39295;45.534;20.034;2023-04-06T14:47:13;20.13;;;11.82;;
53401;SDS011;39295;45.534;20.034;2023-04-06T14:49:45;21.80;;;10.23;;
53401;SDS011;39295;45.534;20.034;2023-04-06T14:52:12;19.52;;;11.77;;
53401;SDS011;39295;45.534;20.034;2023-04-06T14:54:38;23.95;;;13.35;;
53401;SDS011;39295;45.534;20.034;2023-04-06T14:57:04;19.05;;;10.25;;
53401;SDS011;39295;45.534;20.034;2023-04-06T14:59:30;64.47;;;26.98;;
53401;SDS011;39295;45.534;20.034;2023-04-06T15:01:58;49.30;;;19.45;;
53401;SDS011;39295;45.534;20.034;2023-04-06T15:04:27;56.40;;;20.77;;
53401;SDS011;39295;45.534;20.034;2023-04-06T15:06:53;75.13;;;25.55;;
53401;SDS011;39295;45.534;20.034;2023-04-06T15:09:19;41.38;;;15.13;;
53401;SDS011;39295;45.534;20.034;2023-04-06T15:14:43;22.50;;;10.20;;
53401;SDS011;39295;45.534;20.034;2023-04-06T15:17:09;24.63;;;12.07;;
53401;SDS011;39295;45.534;20.034;2023-04-06T15:19:35;21.13;;;11.05;;
53401;SDS011;39295;45.534;20.034;2023-04-06T15:22:01;32.03;;;16.17;;